Ship Status Report: callsign WDG2073

sailwx.info

Track history (hours):
 
Tides and Currents Weather Stations Pressure Air Temp Water Temp Dewpoint Dewpoint Depression Visibility Wind Speed Wind Dir Waves Ship Positions

Oceanographic research ship ()

Owner: Ocean Starr Holding, LLC, Seattle, WA. More information available from US FCC via Universal Licensing System and Coast Guard Vessel Documentation Center.

Last reported at 2017-Oct-17 06:00 UTC. Time now 2017-Oct-17 06:03 UTC.
Position N 48°16' W 124°04'.

Length 56 m; draft 3.6 m.

Type: Ship. MMSI: 367122000.

Date/timePositionNaut miles runAvg speedWind from/ knotsBaromVisibWave heightAir tempDewpointWater temp
2017-Oct-17 06:00N 48°16' W 124°04'4 8.5
2017-Oct-17 05:30N 48°17' W 124°10'4 8.1
2017-Oct-17 05:00N 48°19' W 124°15'4 7.2
2017-Oct-17 04:30N 48°21' W 124°20'3 6.9
2017-Oct-17 04:00N 48°22' W 124°25'3 6.8
2017-Oct-17 03:30N 48°23' W 124°30'3 6.5
2017-Oct-17 03:00N 48°25' W 124°34'3 6.2
2017-Oct-17 02:30N 48°26' W 124°38'3 5.6
2017-Oct-17 02:00N 48°27' W 124°42'3 5.5
2017-Oct-17 01:30N 48°28' W 124°46'3 6.3
2017-Oct-17 01:00N 48°28' W 124°51'3 6.3
2017-Oct-17 00:30N 48°28' W 124°56'3 7.0
2017-Oct-17 00:01N 48°28' W 125°01'4 7.4
2017-Oct-16 23:30N 48°28' W 125°07'4 7.5
2017-Oct-16 23:00N 48°29' W 125°12'4 7.3
2017-Oct-16 22:30N 48°30' W 125°17'4 7.5
2017-Oct-16 22:00N 48°32' W 125°22'4 7.6
2017-Oct-16 21:30N 48°34' W 125°27'4 7.5
2017-Oct-16 21:00N 48°35' W 125°32'4 7.8
2017-Oct-16 20:31N 48°37' W 125°38'4 7.9
2017-Oct-16 20:00N 48°39' W 125°43'4 7.7
2017-Oct-16 19:30N 48°40' W 125°48'4 7.8
2017-Oct-16 19:00N 48°42' W 125°53'4 8.0
2017-Oct-16 18:30N 48°44' W 125°58'4 7.7
2017-Oct-16 18:00N 48°46' W 126°04'4 7.5
2017-Oct-16 17:30N 48°48' W 126°09'4 7.3
2017-Oct-16 17:00N 48°50' W 126°14'4 7.2
2017-Oct-16 16:30N 48°51' W 126°18'4 7.3
2017-Oct-16 16:00N 48°53' W 126°23'4 7.6
2017-Oct-16 15:30N 48°55' W 126°28'4 7.7
2017-Oct-16 14:58N 48°57' W 126°34'  
Track history (hours):
 
Tides and Currents Weather Stations Pressure Air Temp Water Temp Dewpoint Dewpoint Depression Visibility Wind Speed Wind Dir Waves Ship Positions

Oceanographic research ship ()

Owner: Ocean Starr Holding, LLC, Seattle, WA. More information available from US FCC via Universal Licensing System and Coast Guard Vessel Documentation Center.

Last reported at 2017-Oct-17 06:00 UTC. Time now 2017-Oct-17 06:03 UTC.
Position N 48°16' W 124°04'.

Length 56 m; draft 3.6 m.

Type: Ship. MMSI: 367122000.

Date/timePositionNaut miles runAvg speedWind from/ knotsBaromVisibWave heightAir tempDewpointWater temp
2017-Oct-17 06:00N 48°16' W 124°04'4 8.5
2017-Oct-17 05:30N 48°17' W 124°10'4 8.1
2017-Oct-17 05:00N 48°19' W 124°15'4 7.2
2017-Oct-17 04:30N 48°21' W 124°20'3 6.9
2017-Oct-17 04:00N 48°22' W 124°25'3 6.8
2017-Oct-17 03:30N 48°23' W 124°30'3 6.5
2017-Oct-17 03:00N 48°25' W 124°34'3 6.2
2017-Oct-17 02:30N 48°26' W 124°38'3 5.6
2017-Oct-17 02:00N 48°27' W 124°42'3 5.5
2017-Oct-17 01:30N 48°28' W 124°46'3 6.3
2017-Oct-17 01:00N 48°28' W 124°51'3 6.3
2017-Oct-17 00:30N 48°28' W 124°56'3 7.0
2017-Oct-17 00:01N 48°28' W 125°01'4 7.4
2017-Oct-16 23:30N 48°28' W 125°07'4 7.5
2017-Oct-16 23:00N 48°29' W 125°12'4 7.3
2017-Oct-16 22:30N 48°30' W 125°17'4 7.5
2017-Oct-16 22:00N 48°32' W 125°22'4 7.6
2017-Oct-16 21:30N 48°34' W 125°27'4 7.5
2017-Oct-16 21:00N 48°35' W 125°32'4 7.8
2017-Oct-16 20:31N 48°37' W 125°38'4 7.9
2017-Oct-16 20:00N 48°39' W 125°43'4 7.7
2017-Oct-16 19:30N 48°40' W 125°48'4 7.8
2017-Oct-16 19:00N 48°42' W 125°53'4 8.0
2017-Oct-16 18:30N 48°44' W 125°58'4 7.7
2017-Oct-16 18:00N 48°46' W 126°04'4 7.5
2017-Oct-16 17:30N 48°48' W 126°09'4 7.3
2017-Oct-16 17:00N 48°50' W 126°14'4 7.2
2017-Oct-16 16:30N 48°51' W 126°18'4 7.3
2017-Oct-16 16:00N 48°53' W 126°23'4 7.6
2017-Oct-16 15:30N 48°55' W 126°28'4 7.7
2017-Oct-16 14:58N 48°57' W 126°34'  

Dump ship's entire track history